Nathalie, Virginia
Current Conditions -  °F | °C
As of 5:55 AM on Wednesday 22 Oct 2014 (Local Time) from K0V4 Reporting Station
Clear Clear  
Wind Chill: 46°   Ceiling: Unl
Heat Index: 48°   Visibility: 10mi
Dew Point: 45°   Wind: 5mph
Humidity: 87%   Direction: 290°WNW
Pressure: 29.94"   Gusts: NA
Location:  36.94°N, 78.95°W
Report Text: K0V4 220955Z AUTO 29004KT 10SM CLR 09/07 A2994 RMK AO1 T00900070
Loading
Personal Weather Stations






























Interactive Weather Map
Tropical Storm Tracking
New forecast layout! Learn more

10-Day Weather Forecast

Advertisements
Track Severe Weather on mobile